Home > Products > Valid Products > TAF

000
FTUS42 KRAH 290113 AAA
TAFRWI
TAF AMD
KRWI 290113Z 2901/2924 VRB05KT P6SM SCT050 SCT250
      TEMPO 2904/2908 4SM BR SCT007
     FM290800 04003KT 5SM BR BKN007
     FM291400 06005KT P6SM SCT025 BKN035=



000
FTUS42 KRAH 290113 AAA
TAFRWI
TAF AMD
KRWI 290113Z 2901/2924 VRB05KT P6SM SCT050 SCT250
      TEMPO 2904/2908 4SM BR SCT007
     FM290800 04003KT 5SM BR BKN007
     FM291400 06005KT P6SM SCT025 BKN035=



000
FTUS42 KRAH 282336
TAFRWI
TAF
KRWI 282336Z 2900/2924 VRB05KT P6SM SCT050 SCT250
     FM290800 04003KT 5SM BR BKN007
     FM291400 06005KT P6SM SCT025 BKN035=



000
FTUS42 KRAH 282336
TAFINT
TAF
KINT 282336Z 2900/2924 VRB05KT P6SM SCT050 SCT250
     FM290900 05003KT 5SM BR SCT007 BKN050
     FM291300 05006KT P6SM SCT025 BKN035=



000
FTUS42 KRAH 282336
TAFGSO
TAF
KGSO 282336Z 2900/2924 VRB05KT P6SM SCT050 SCT250
     FM290900 05003KT 5SM BR SCT007 BKN050
     FM291300 05006KT P6SM SCT025 BKN035=



000
FTUS42 KRAH 282336
TAFFAY
TAF
KFAY 282336Z 2900/2924 VRB05KT P6SM SCT250=



000
FTUS42 KRAH 282336
TAFRDU
TAF
KRDU 282336Z 2900/2924 VRB05KT P6SM SCT040 SCT250
     FM290900 06003KT 5SM BR BKN015
      TEMPO 2909/2912 BKN007
     FM291400 07006KT P6SM SCT025 BKN035=



000
FTUS42 KRAH 282336
TAFRWI
TAF
KRWI 282336Z 2900/2924 VRB05KT P6SM SCT050 SCT250
     FM290800 04003KT 5SM BR BKN007
     FM291400 06005KT P6SM SCT025 BKN035=



000
FTUS42 KRAH 282336
TAFINT
TAF
KINT 282336Z 2900/2924 VRB05KT P6SM SCT050 SCT250
     FM290900 05003KT 5SM BR SCT007 BKN050
     FM291300 05006KT P6SM SCT025 BKN035=



000
FTUS42 KRAH 282336
TAFGSO
TAF
KGSO 282336Z 2900/2924 VRB05KT P6SM SCT050 SCT250
     FM290900 05003KT 5SM BR SCT007 BKN050
     FM291300 05006KT P6SM SCT025 BKN035=



000
FTUS42 KRAH 282336
TAFFAY
TAF
KFAY 282336Z 2900/2924 VRB05KT P6SM SCT250=



000
FTUS42 KRAH 282336
TAFRDU
TAF
KRDU 282336Z 2900/2924 VRB05KT P6SM SCT040 SCT250
     FM290900 06003KT 5SM BR BKN015
      TEMPO 2909/2912 BKN007
     FM291400 07006KT P6SM SCT025 BKN035=



000
FTUS42 KRAH 281720
TAFGSO
TAF
KGSO 281720Z 2818/2918 VRB05KT P6SM SCT050 SCT250
     FM290900 05003KT 5SM BR FEW005 BKN030
     FM291300 05006KT 6SM BR SCT025 BKN050=



000
FTUS42 KRAH 281720
TAFRWI
TAF
KRWI 281720Z 2818/2918 VRB05KT P6SM SCT050 SCT250
     FM290800 04003KT 5SM BR FEW005 BKN030
     FM291300 06005KT 6SM BR SCT025 SCT050=



000
FTUS42 KRAH 281720
TAFINT
TAF
KINT 281720Z 2818/2918 VRB05KT P6SM SCT050 SCT250
     FM290900 05003KT 5SM BR FEW005 BKN030
     FM291300 05006KT 6SM BR SCT025 BKN050=



000
FTUS42 KRAH 281720
TAFFAY
TAF
KFAY 281720Z 2818/2918 VRB05KT P6SM SCT250=



000
FTUS42 KRAH 281720
TAFINT
TAF
KINT 281720Z 2818/2918 VRB05KT P6SM SCT050 SCT250
     FM290900 05003KT 5SM BR FEW005 BKN030
     FM291300 05006KT 6SM BR SCT025 BKN050=



000
FTUS42 KRAH 281720
TAFRDU
TAF
KRDU 281720Z 2818/2918 VRB05KT P6SM SCT040 SCT250
     FM290900 06003KT 5SM BR FEW005 BKN030
     FM291300 07006KT 6SM BR SCT025 BKN050=



000
FTUS42 KRAH 281720
TAFRDU
TAF
KRDU 281720Z 2818/2918 VRB05KT P6SM SCT040 SCT250
     FM290900 06003KT 5SM BR FEW005 BKN030
     FM291300 07006KT 6SM BR SCT025 BKN050=



000
FTUS42 KRAH 281720
TAFRWI
TAF
KRWI 281720Z 2818/2918 VRB05KT P6SM SCT050 SCT250
     FM290800 04003KT 5SM BR FEW005 BKN030
     FM291300 06005KT 6SM BR SCT025 SCT050=



000
FTUS42 KRAH 281720
TAFGSO
TAF
KGSO 281720Z 2818/2918 VRB05KT P6SM SCT050 SCT250
     FM290900 05003KT 5SM BR FEW005 BKN030
     FM291300 05006KT 6SM BR SCT025 BKN050=



000
FTUS42 KRAH 281720
TAFFAY
TAF
KFAY 281720Z 2818/2918 VRB05KT P6SM SCT250=



000
FTUS42 KRAH 281120
TAFGSO
TAF
KGSO 281120Z 2812/2912 VRB05KT P6SM SCT250=



000
FTUS42 KRAH 281120
TAFRDU
TAF
KRDU 281120Z 2812/2912 VRB05KT P6SM SCT250=



000
FTUS42 KRAH 281120
TAFRWI
TAF
KRWI 281120Z 2812/2912 VRB05KT P6SM SCT250=



000
FTUS42 KRAH 281120
TAFINT
TAF
KINT 281120Z 2812/2912 VRB05KT P6SM SCT250=



000
FTUS42 KRAH 281120
TAFRWI
TAF
KRWI 281120Z 2812/2912 VRB05KT P6SM SCT250=



000
FTUS42 KRAH 281120
TAFFAY
TAF
KFAY 281120Z 2812/2912 VRB05KT P6SM SCT250=



000
FTUS42 KRAH 281120
TAFINT
TAF
KINT 281120Z 2812/2912 VRB05KT P6SM SCT250=



000
FTUS42 KRAH 281120
TAFRDU
TAF
KRDU 281120Z 2812/2912 VRB05KT P6SM SCT250=



000
FTUS42 KRAH 281120
TAFGSO
TAF
KGSO 281120Z 2812/2912 VRB05KT P6SM SCT250=



000
FTUS42 KRAH 281120
TAFFAY
TAF
KFAY 281120Z 2812/2912 VRB05KT P6SM SCT250=



000
FTUS42 KRAH 280930 AAA
TAFRDU
TAF AMD
KRDU 280930Z 2810/2906 VRB05KT P6SM SCT250=



000
FTUS42 KRAH 280930 AAA
TAFRDU
TAF AMD
KRDU 280930Z 2810/2906 VRB05KT P6SM SCT250=



000
FTUS42 KRAH 280930 AAA
TAFGSO
TAF AMD
KGSO 280930Z 2810/2906 VRB05KT P6SM SKC=



000
FTUS42 KRAH 280930 AAA
TAFGSO
TAF AMD
KGSO 280930Z 2810/2906 VRB05KT P6SM SKC=



000
FTUS42 KRAH 280520
TAFRWI
TAF
KRWI 280520Z 2806/2906 VRB05KT P6SM SKC=



000
FTUS42 KRAH 280520
TAFGSO
TAF
KGSO 280520Z 2806/2906 VRB05KT P6SM SKC=



000
FTUS42 KRAH 280520
TAFFAY
TAF
KFAY 280520Z 2806/2906 VRB05KT P6SM SKC=



000
FTUS42 KRAH 280520
TAFINT
TAF
KINT 280520Z 2806/2906 VRB05KT P6SM SKC=



000
FTUS42 KRAH 280520
TAFRDU
TAF
KRDU 280520Z 2806/2906 VRB05KT P6SM SKC=



000
FTUS42 KRAH 280520
TAFGSO
TAF
KGSO 280520Z 2806/2906 VRB05KT P6SM SKC=



000
FTUS42 KRAH 280520
TAFRWI
TAF
KRWI 280520Z 2806/2906 VRB05KT P6SM SKC=



000
FTUS42 KRAH 280520
TAFFAY
TAF
KFAY 280520Z 2806/2906 VRB05KT P6SM SKC=



000
FTUS42 KRAH 280520
TAFRDU
TAF
KRDU 280520Z 2806/2906 VRB05KT P6SM SKC=



000
FTUS42 KRAH 280520
TAFINT
TAF
KINT 280520Z 2806/2906 VRB05KT P6SM SKC=



000
FTUS42 KRAH 280153 AAA
TAFGSO
TAF AMD
KGSO 280153Z 2802/2824 00000KT P6SM SCT250=



000
FTUS42 KRAH 280153 AAA
TAFGSO
TAF AMD
KGSO 280153Z 2802/2824 00000KT P6SM SCT250=



000
FTUS42 KRAH 280153 AAA
TAFRDU
TAF AMD
KRDU 280153Z 2802/2824 26003KT P6SM FEW250=



000
FTUS42 KRAH 280153 AAA
TAFINT
TAF AMD
KINT 280153Z 2802/2824 00000KT P6SM SCT250=



000
FTUS42 KRAH 280153 AAA
TAFINT
TAF AMD
KINT 280153Z 2802/2824 00000KT P6SM SCT250=



000
FTUS42 KRAH 280153 AAA
TAFRDU
TAF AMD
KRDU 280153Z 2802/2824 26003KT P6SM FEW250=



000
FTUS42 KRAH 272320
TAFRDU
TAF
KRDU 272320Z 2800/2824 00000KT P6SM SKC=



000
FTUS42 KRAH 272320
TAFGSO
TAF
KGSO 272320Z 2800/2824 00000KT P6SM SKC=



000
FTUS42 KRAH 272320
TAFRWI
TAF
KRWI 272320Z 2800/2824 VRB03KT P6SM SKC=



000
FTUS42 KRAH 272320
TAFFAY
TAF
KFAY 272320Z 2800/2824 VRB03KT P6SM SKC=



000
FTUS42 KRAH 272320
TAFRDU
TAF
KRDU 272320Z 2800/2824 00000KT P6SM SKC=



000
FTUS42 KRAH 272320
TAFGSO
TAF
KGSO 272320Z 2800/2824 00000KT P6SM SKC=



000
FTUS42 KRAH 272320
TAFINT
TAF
KINT 272320Z 2800/2824 00000KT P6SM SKC=



000
FTUS42 KRAH 272320
TAFRWI
TAF
KRWI 272320Z 2800/2824 VRB03KT P6SM SKC=



000
FTUS42 KRAH 272320
TAFFAY
TAF
KFAY 272320Z 2800/2824 VRB03KT P6SM SKC=



000
FTUS42 KRAH 272320
TAFINT
TAF
KINT 272320Z 2800/2824 00000KT P6SM SKC=



000
FTUS42 KRAH 271736
TAFGSO
TAF
KGSO 271736Z 2718/2818 36006KT P6SM FEW250
     FM280000 VRB03KT P6SM SCT250=



000
FTUS42 KRAH 271736
TAFRWI
TAF
KRWI 271736Z 2718/2818 01009KT P6SM FEW250
     FM280000 VRB03KT P6SM SCT250=



000
FTUS42 KRAH 271736
TAFRDU
TAF
KRDU 271736Z 2718/2818 01008KT P6SM FEW250
     FM280000 VRB03KT P6SM SCT250=



000
FTUS42 KRAH 271736
TAFINT
TAF
KINT 271736Z 2718/2818 36006KT P6SM FEW250
     FM280000 VRB03KT P6SM SCT250=



000
FTUS42 KRAH 271736
TAFFAY
TAF
KFAY 271736Z 2718/2818 01007KT P6SM FEW250
     FM280000 VRB03KT P6SM FEW250=



000
FTUS42 KRAH 271736
TAFRWI
TAF
KRWI 271736Z 2718/2818 01009KT P6SM FEW250
     FM280000 VRB03KT P6SM SCT250=



000
FTUS42 KRAH 271736
TAFINT
TAF
KINT 271736Z 2718/2818 36006KT P6SM FEW250
     FM280000 VRB03KT P6SM SCT250=



000
FTUS42 KRAH 271736
TAFGSO
TAF
KGSO 271736Z 2718/2818 36006KT P6SM FEW250
     FM280000 VRB03KT P6SM SCT250=



000
FTUS42 KRAH 271736
TAFFAY
TAF
KFAY 271736Z 2718/2818 01007KT P6SM FEW250
     FM280000 VRB03KT P6SM FEW250=



000
FTUS42 KRAH 271736
TAFRDU
TAF
KRDU 271736Z 2718/2818 01008KT P6SM FEW250
     FM280000 VRB03KT P6SM SCT250=



000
FTUS42 KRAH 271315 AAA
TAFRDU
TAF AMD
KRDU 271315Z 2713/2812 01008KT P6SM FEW250
     FM280000 00000KT P6SM FEW250=



000
FTUS42 KRAH 271314 AAA
TAFFAY
TAF AMD
KFAY 271314Z 2713/2812 36006KT P6SM FEW030 FEW250
     FM280100 VRB03KT P6SM FEW250=



000
FTUS42 KRAH 271312 AAA
TAFRWI
TAF AMD
KRWI 271312Z 2713/2812 33005KT P6SM SCT005 SCT015
     FM271600 35009KT P6SM FEW025 SCT250
     FM280000 00000KT P6SM FEW250=



000
FTUS42 KRAH 271312 AAA
TAFRWI
TAF AMD
KRWI 271312Z 2713/2812 33005KT P6SM SCT005 SCT015
     FM271600 35009KT P6SM FEW025 SCT250
     FM280000 00000KT P6SM FEW250=



000
FTUS42 KRAH 271127
TAFINT
TAF
KINT 271127Z 2712/2812 36006KT P6SM FEW250
     FM280000 VRB02KT P6SM FEW250=



000
FTUS42 KRAH 271127
TAFGSO
TAF
KGSO 271127Z 2712/2812 36006KT P6SM FEW250
     FM280000 VRB02KT P6SM FEW250=



000
FTUS42 KRAH 271127
TAFRWI
TAF
KRWI 271127Z 2712/2812 02005KT 1/4SM FG VV002
      TEMPO 2712/2714 3SM BR SCT004 OVC009
     FM271400 01008KT P6SM BKN015
      TEMPO 2714/2716 36012G18KT
     FM271600 35009KT P6SM FEW025 SCT250
     FM280000 00000KT P6SM FEW250=



000
FTUS42 KRAH 271127
TAFFAY
TAF
KFAY 271127Z 2712/2812 36006KT P6SM FEW030 FEW250
      TEMPO 2713/2716 36010G16KT BKN015
     FM280100 VRB03KT P6SM FEW250=



000
FTUS42 KRAH 271127
TAFRDU
TAF
KRDU 271127Z 2712/2812 01008KT P6SM FEW250
      TEMPO 2713/2716 BKN015
     FM280000 00000KT P6SM FEW250=



000
FTUS42 KRAH 271127
TAFRWI
TAF
KRWI 271127Z 2712/2812 02005KT 1/4SM FG VV002
      TEMPO 2712/2714 3SM BR SCT004 OVC009
     FM271400 01008KT P6SM BKN015
      TEMPO 2714/2716 36012G18KT
     FM271600 35009KT P6SM FEW025 SCT250
     FM280000 00000KT P6SM FEW250=



000
FTUS42 KRAH 271127
TAFINT
TAF
KINT 271127Z 2712/2812 36006KT P6SM FEW250
     FM280000 VRB02KT P6SM FEW250=



000
FTUS42 KRAH 271127
TAFRDU
TAF
KRDU 271127Z 2712/2812 01008KT P6SM FEW250
      TEMPO 2713/2716 BKN015
     FM280000 00000KT P6SM FEW250=



000
FTUS42 KRAH 271127
TAFFAY
TAF
KFAY 271127Z 2712/2812 36006KT P6SM FEW030 FEW250
      TEMPO 2713/2716 36010G16KT BKN015
     FM280100 VRB03KT P6SM FEW250=



000
FTUS42 KRAH 271127
TAFGSO
TAF
KGSO 271127Z 2712/2812 36006KT P6SM FEW250
     FM280000 VRB02KT P6SM FEW250=



000
FTUS42 KRAH 271024 AAH
TAFRWI
TAF AMD
KRWI 271024Z 2710/2806 01007KT 1/2SM FG VV002
      TEMPO 2712/2714 6SM BR SCT004 OVC009
     FM271400 01008KT P6SM BKN015
      TEMPO 2714/2716 36012G18KT
     FM271600 35009KT P6SM FEW025 SCT250
     FM280000 00000KT P6SM FEW250=



000
FTUS42 KRAH 271024 AAH
TAFRWI
TAF AMD
KRWI 271024Z 2710/2806 01007KT 1/2SM FG VV002
      TEMPO 2712/2714 6SM BR SCT004 OVC009
     FM271400 01008KT P6SM BKN015
      TEMPO 2714/2716 36012G18KT
     FM271600 35009KT P6SM FEW025 SCT250
     FM280000 00000KT P6SM FEW250=



000
FTUS42 KRAH 271024 AAH
TAFRWI
TAF AMD
KRWI 271024Z 2710/2806 01007KT 1/2SM FG VV002
      TEMPO 2712/2714 6SM BR SCT004 OVC009
     FM271400 01008KT P6SM BKN015
      TEMPO 2714/2716 36012G18KT
     FM271600 35009KT P6SM FEW025 SCT250
     FM280000 00000KT P6SM FEW250=



000
FTUS42 KRAH 271024 AAH
TAFRWI
TAF AMD
KRWI 271024Z 2710/2806 01007KT 1/2SM FG VV002
      TEMPO 2712/2714 6SM BR SCT004 OVC009
     FM271400 01008KT P6SM BKN015
      TEMPO 2714/2716 36012G18KT
     FM271600 35009KT P6SM FEW025 SCT250
     FM280000 00000KT P6SM FEW250=



000
FTUS42 KRAH 271004 AAG
TAFRWI
TAF AMD
KRWI 271004Z 2710/2806 36003KT 3SM BR OVC004
      TEMPO 2710/2713 1SM BR OVC002
     FM271400 36008KT P6SM BKN012
      TEMPO 2714/2716 36012G18KT
     FM271600 01009KT P6SM FEW025 SCT250
     FM280000 00000KT P6SM FEW250=



000
FTUS42 KRAH 271004 AAF
TAFRWI
TAF AMD
KRWI 271004Z 2710/2806 36003KT 6SM BR OVC005
      TEMPO 2710/2713 1SM BR OVC002
     FM271400 36008KT P6SM BKN012
      TEMPO 2714/2716 36012G18KT
     FM271600 01009KT P6SM FEW025 SCT250
     FM280000 00000KT P6SM FEW250=



000
FTUS42 KRAH 271004 AAF
TAFRWI
TAF AMD
KRWI 271004Z 2710/2806 36003KT 6SM BR OVC005
      TEMPO 2710/2713 1SM BR OVC002
     FM271400 36008KT P6SM BKN012
      TEMPO 2714/2716 36012G18KT
     FM271600 01009KT P6SM FEW025 SCT250
     FM280000 00000KT P6SM FEW250=



000
FTUS42 KRAH 270915 AAE
TAFRWI
TAF AMD
KRWI 270915Z 2709/2806 00000KT 6SM BR SCT005
      TEMPO 2709/2713 3SM BR OVC005
     FM271300 36010KT P6SM FEW030 SCT250
      TEMPO 2713/2717 36012G18KT BKN015
     FM280000 00000KT P6SM FEW250=



000
FTUS42 KRAH 270915 AAE
TAFRWI
TAF AMD
KRWI 270915Z 2709/2806 00000KT 6SM BR SCT005
      TEMPO 2709/2713 3SM BR OVC005
     FM271300 36010KT P6SM FEW030 SCT250
      TEMPO 2713/2717 36012G18KT BKN015
     FM280000 00000KT P6SM FEW250=



000
FTUS42 KRAH 270845 AAA
TAFRDU
TAF AMD
KRDU 270845Z 2709/2806 00000KT P6SM FEW250
     FM271300 01008KT P6SM FEW030 SCT250
      TEMPO 2713/2717 BKN015
     FM280000 00000KT P6SM FEW250=



000
FTUS42 KRAH 270845 AAA
TAFGSO
TAF AMD
KGSO 270845Z 2709/2806 36004KT P6SM FEW250=



000
FTUS42 KRAH 270845 AAA
TAFGSO
TAF AMD
KGSO 270845Z 2709/2806 36004KT P6SM FEW250=



000
FTUS42 KRAH 270845 AAA
TAFRDU
TAF AMD
KRDU 270845Z 2709/2806 00000KT P6SM FEW250
     FM271300 01008KT P6SM FEW030 SCT250
      TEMPO 2713/2717 BKN015
     FM280000 00000KT P6SM FEW250=



000
FTUS42 KRAH 270818 AAD
TAFRWI
TAF AMD
KRWI 270818Z 2708/2806 00000KT 6SM BR SKC
      TEMPO 2708/2711 3SM BR
     FM271200 36010KT P6SM FEW030 SCT250
      TEMPO 2713/2717 36012G18KT BKN015
     FM280000 00000KT P6SM FEW250=



000
FTUS42 KRAH 270818 AAD
TAFRWI
TAF AMD
KRWI 270818Z 2708/2806 00000KT 6SM BR SKC
      TEMPO 2708/2711 3SM BR
     FM271200 36010KT P6SM FEW030 SCT250
      TEMPO 2713/2717 36012G18KT BKN015
     FM280000 00000KT P6SM FEW250=



000
FTUS42 KRAH 270721 AAC
TAFRWI
TAF AMD
KRWI 270721Z 2707/2806 00000KT 3SM BR SKC
      TEMPO 2707/2711 1SM BR
     FM271200 36010KT P6SM FEW030 SCT250
      TEMPO 2713/2717 36012G18KT BKN015
     FM280000 00000KT P6SM FEW250=



000
FTUS42 KRAH 270721 AAC
TAFRWI
TAF AMD
KRWI 270721Z 2707/2806 00000KT 3SM BR SKC
      TEMPO 2707/2711 1SM BR
     FM271200 36010KT P6SM FEW030 SCT250
      TEMPO 2713/2717 36012G18KT BKN015
     FM280000 00000KT P6SM FEW250=



000
FTUS42 KRAH 270656 AAB
TAFRWI
TAF AMD
KRWI 270656Z 2707/2806 00000KT 3SM BR SKC
      TEMPO 2707/2711 1SM BR VV007
     FM271200 36010KT P6SM FEW030 SCT250
      TEMPO 2713/2717 36012G18KT BKN015
     FM280000 00000KT P6SM FEW250=



000
FTUS42 KRAH 270656 AAB
TAFRWI
TAF AMD
KRWI 270656Z 2707/2806 00000KT 3SM BR SKC
      TEMPO 2707/2711 1SM BR VV007
     FM271200 36010KT P6SM FEW030 SCT250
      TEMPO 2713/2717 36012G18KT BKN015
     FM280000 00000KT P6SM FEW250=



000
FTUS42 KRAH 270638 AAA
TAFRWI
TAF AMD
KRWI 270638Z 2707/2806 00000KT 3SM BR SKC
      TEMPO 2707/2711 1/2SM FG VV002
     FM271200 36010KT P6SM FEW030 SCT250
      TEMPO 2713/2717 36012G18KT BKN015
     FM280000 00000KT P6SM FEW250=



000
FTUS42 KRAH 270520
TAFFAY
TAF
KFAY 270520Z 2706/2806 02005KT P6SM FEW250
     FM271200 36010KT P6SM FEW030 SCT250
      TEMPO 2713/2717 36012G18KT BKN015
     FM280100 00000KT P6SM FEW250=



000
FTUS42 KRAH 270520
TAFRDU
TAF
KRDU 270520Z 2706/2806 00000KT P6SM FEW250
     FM271300 01008KT P6SM FEW030 SCT250
      TEMPO 2713/2717 BKN015
     FM280000 00000KT P6SM FEW250=



000
FTUS42 KRAH 270520
TAFRWI
TAF
KRWI 270520Z 2706/2806 00000KT P6SM FEW250
      TEMPO 2707/2711 3SM BR
     FM271200 36010KT P6SM FEW030 SCT250
      TEMPO 2713/2717 36012G18KT BKN015
     FM280000 00000KT P6SM FEW250=



000
FTUS42 KRAH 270520
TAFRDU
TAF
KRDU 270520Z 2706/2806 00000KT P6SM FEW250
     FM271300 01008KT P6SM FEW030 SCT250
      TEMPO 2713/2717 BKN015
     FM280000 00000KT P6SM FEW250=



000
FTUS42 KRAH 270520
TAFGSO
TAF
KGSO 270520Z 2706/2806 36004KT P6SM FEW250=



000
FTUS42 KRAH 270520
TAFRWI
TAF
KRWI 270520Z 2706/2806 00000KT P6SM FEW250
      TEMPO 2707/2711 3SM BR
     FM271200 36010KT P6SM FEW030 SCT250
      TEMPO 2713/2717 36012G18KT BKN015
     FM280000 00000KT P6SM FEW250=



000
FTUS42 KRAH 270520
TAFFAY
TAF
KFAY 270520Z 2706/2806 02005KT P6SM FEW250
     FM271200 36010KT P6SM FEW030 SCT250
      TEMPO 2713/2717 36012G18KT BKN015
     FM280100 00000KT P6SM FEW250=



000
FTUS42 KRAH 270520
TAFINT
TAF
KINT 270520Z 2706/2806 36004KT P6SM FEW250=



000
FTUS42 KRAH 270520
TAFINT
TAF
KINT 270520Z 2706/2806 36004KT P6SM FEW250=



000
FTUS42 KRAH 270520
TAFGSO
TAF
KGSO 270520Z 2706/2806 36004KT P6SM FEW250=



000
FTUS42 KRAH 270153 AAA
TAFINT
TAF AMD
KINT 270153Z 2702/2724 02004KT P6SM SCT250=



000
FTUS42 KRAH 270153 AAA
TAFRDU
TAF AMD
KRDU 270153Z 2702/2724 02004KT P6SM FEW045 BKN250=



000
FTUS42 KRAH 270153 AAA
TAFGSO
TAF AMD
KGSO 270153Z 2702/2724 02004KT P6SM SCT250=



000
FTUS42 KRAH 270153 AAA
TAFGSO
TAF AMD
KGSO 270153Z 2702/2724 02004KT P6SM SCT250=



000
FTUS42 KRAH 270153 AAA
TAFRDU
TAF AMD
KRDU 270153Z 2702/2724 02004KT P6SM FEW045 BKN250=



000
FTUS42 KRAH 270153 AAA
TAFINT
TAF AMD
KINT 270153Z 2702/2724 02004KT P6SM SCT250=



000
FTUS42 KRAH 262340
TAFGSO
TAF
KGSO 262340Z 2700/2724 05004KT P6SM SCT250=



000
FTUS42 KRAH 262340
TAFRDU
TAF
KRDU 262340Z 2700/2724 05004KT P6SM FEW045 BKN250=



000
FTUS42 KRAH 262340
TAFINT
TAF
KINT 262340Z 2700/2724 05004KT P6SM SCT250=



000
FTUS42 KRAH 262340
TAFFAY
TAF
KFAY 262340Z 2700/2724 05004KT P6SM FEW045 BKN250
     FM271300 36010KT P6SM FEW030 SCT250
      TEMPO 2713/2717 36012G18KT=



000
FTUS42 KRAH 262340
TAFRWI
TAF
KRWI 262340Z 2700/2724 04003KT P6SM FEW045 BKN250
     FM271300 36010KT P6SM FEW030 SCT250
      TEMPO 2713/2717 36012G18KT=



000
FTUS42 KRAH 262340
TAFRDU
TAF
KRDU 262340Z 2700/2724 05004KT P6SM FEW045 BKN250=



000
FTUS42 KRAH 262340
TAFGSO
TAF
KGSO 262340Z 2700/2724 05004KT P6SM SCT250=



000
FTUS42 KRAH 262340
TAFRWI
TAF
KRWI 262340Z 2700/2724 04003KT P6SM FEW045 BKN250
     FM271300 36010KT P6SM FEW030 SCT250
      TEMPO 2713/2717 36012G18KT=



000
FTUS42 KRAH 262340
TAFFAY
TAF
KFAY 262340Z 2700/2724 05004KT P6SM FEW045 BKN250
     FM271300 36010KT P6SM FEW030 SCT250
      TEMPO 2713/2717 36012G18KT=



000
FTUS42 KRAH 262340
TAFINT
TAF
KINT 262340Z 2700/2724 05004KT P6SM SCT250=



000
FTUS42 KRAH 261728
TAFRDU
TAF
KRDU 261728Z 2618/2718 05008G15KT P6SM SCT035
     FM270000 VRB02KT 6SM BR FEW250
     FM271300 01006KT P6SM FEW250=



000
FTUS42 KRAH 261728
TAFFAY
TAF
KFAY 261728Z 2618/2718 02011KT P6SM SCT035
     FM270000 01006KT P6SM FEW250=



000
FTUS42 KRAH 261728
TAFGSO
TAF
KGSO 261728Z 2618/2718 04008KT P6SM FEW035
     FM270000 VRB02KT P6SM FEW250
     FM271200 01005KT P6SM FEW250=



000
FTUS42 KRAH 261728
TAFINT
TAF
KINT 261728Z 2618/2718 05008KT P6SM FEW035
     FM270000 VRB02KT P6SM FEW250
     FM271200 01005KT P6SM FEW250=



000
FTUS42 KRAH 261728
TAFRWI
TAF
KRWI 261728Z 2618/2718 02010KT P6SM SCT035
     FM270000 01003KT 6SM BR FEW250
     FM271200 35008KT P6SM FEW250=



000
FTUS42 KRAH 261728
TAFFAY
TAF
KFAY 261728Z 2618/2718 02011KT P6SM SCT035
     FM270000 01006KT P6SM FEW250=



000
FTUS42 KRAH 261728
TAFINT
TAF
KINT 261728Z 2618/2718 05008KT P6SM FEW035
     FM270000 VRB02KT P6SM FEW250
     FM271200 01005KT P6SM FEW250=



000
FTUS42 KRAH 261728
TAFRDU
TAF
KRDU 261728Z 2618/2718 05008G15KT P6SM SCT035
     FM270000 VRB02KT 6SM BR FEW250
     FM271300 01006KT P6SM FEW250=



000
FTUS42 KRAH 261728
TAFGSO
TAF
KGSO 261728Z 2618/2718 04008KT P6SM FEW035
     FM270000 VRB02KT P6SM FEW250
     FM271200 01005KT P6SM FEW250=



000
FTUS42 KRAH 261728
TAFRWI
TAF
KRWI 261728Z 2618/2718 02010KT P6SM SCT035
     FM270000 01003KT 6SM BR FEW250
     FM271200 35008KT P6SM FEW250=



000
FTUS42 KRAH 261459 AAA
TAFFAY
TAF AMD
KFAY 261459Z 2615/2712 03011KT P6SM SCT025 SCT040
      TEMPO 2615/2617 BKN025
     FM270000 01006KT P6SM FEW250=



000
FTUS42 KRAH 261459 AAA
TAFFAY
TAF AMD
KFAY 261459Z 2615/2712 03011KT P6SM SCT025 SCT040
      TEMPO 2615/2617 BKN025
     FM270000 01006KT P6SM FEW250=



000
FTUS42 KRAH 261456 AAA
TAFRWI
TAF AMD
KRWI 261456Z 2615/2712 03010G17KT P6SM SCT015 SCT030
      TEMPO 2615/2617 BKN020
     FM262300 02003KT P6SM FEW250=



000
FTUS42 KRAH 261456 AAA
TAFRWI
TAF AMD
KRWI 261456Z 2615/2712 03010G17KT P6SM SCT015 SCT030
      TEMPO 2615/2617 BKN020
     FM262300 02003KT P6SM FEW250=



000
FTUS42 KRAH 261455 AAA
TAFRDU
TAF AMD
KRDU 261455Z 2615/2712 04009G15KT P6SM FEW018 SCT030 SCT250
      TEMPO 2615/2617 BKN030
     FM270000 VRB03KT P6SM FEW250=



000
FTUS42 KRAH 261455 AAA
TAFRDU
TAF AMD
KRDU 261455Z 2615/2712 04009G15KT P6SM FEW018 SCT030 SCT250
      TEMPO 2615/2617 BKN030
     FM270000 VRB03KT P6SM FEW250=



000
FTUS42 KRAH 261124 CCA
TAFRWI
TAF COR
KRWI 261124Z 2612/2712 01005KT P6SM FEW250
      TEMPO 2612/2614 BKN025
     FM261400 03010KT P6SM SCT040 SCT250
     FM262300 02003KT P6SM FEW250=



000
FTUS42 KRAH 261124 CCA
TAFRWI
TAF COR
KRWI 261124Z 2612/2712 01005KT P6SM FEW250
      TEMPO 2612/2614 BKN025
     FM261400 03010KT P6SM SCT040 SCT250
     FM262300 02003KT P6SM FEW250=



000
FTUS42 KRAH 261120
TAFINT
TAF
KINT 261120Z 2612/2712 03007KT P6SM FEW040 FEW250
     FM270000 VRB03KT P6SM FEW250=



000
FTUS42 KRAH 261120
TAFRDU
TAF
KRDU 261120Z 2612/2712 04004KT P6SM FEW200
     FM261400 04009KT P6SM FEW040 SCT250
     FM270000 VRB03KT P6SM FEW250=



000
FTUS42 KRAH 261120
TAFRWI
TAF
KRWI 261120Z 2612/2712 01004KT P6SM FEW250
     FM261400 03010KT P6SM SCT040 SCT250
     FM262300 02003KT P6SM FEW250=



000
FTUS42 KRAH 261120
TAFGSO
TAF
KGSO 261120Z 2612/2712 03007KT P6SM FEW040 FEW250
     FM270000 VRB03KT P6SM FEW250=



000
FTUS42 KRAH 261120
TAFFAY
TAF
KFAY 261120Z 2612/2712 01008KT P6SM FEW250
     FM261400 03011KT P6SM SCT040 SCT250
     FM270000 01006KT P6SM FEW250=



000
FTUS42 KRAH 261120
TAFFAY
TAF
KFAY 261120Z 2612/2712 01008KT P6SM FEW250
     FM261400 03011KT P6SM SCT040 SCT250
     FM270000 01006KT P6SM FEW250=



000
FTUS42 KRAH 261120
TAFINT
TAF
KINT 261120Z 2612/2712 03007KT P6SM FEW040 FEW250
     FM270000 VRB03KT P6SM FEW250=



000
FTUS42 KRAH 261120
TAFGSO
TAF
KGSO 261120Z 2612/2712 03007KT P6SM FEW040 FEW250
     FM270000 VRB03KT P6SM FEW250=



000
FTUS42 KRAH 261120
TAFRDU
TAF
KRDU 261120Z 2612/2712 04004KT P6SM FEW200
     FM261400 04009KT P6SM FEW040 SCT250
     FM270000 VRB03KT P6SM FEW250=



000
FTUS42 KRAH 261120
TAFRWI
TAF
KRWI 261120Z 2612/2712 01004KT P6SM FEW250
     FM261400 03010KT P6SM SCT040 SCT250
     FM262300 02003KT P6SM FEW250=



000
FTUS42 KRAH 260903 AAA
TAFRDU
TAF AMD
KRDU 260903Z 2609/2706 05003KT P6SM FEW200
     FM261400 04009KT P6SM FEW040 SCT250
     FM270000 06003KT P6SM FEW250=



000
FTUS42 KRAH 260903 AAA
TAFRDU
TAF AMD
KRDU 260903Z 2609/2706 05003KT P6SM FEW200
     FM261400 04009KT P6SM FEW040 SCT250
     FM270000 06003KT P6SM FEW250=



000
FTUS42 KRAH 260903 AAA
TAFGSO
TAF AMD
KGSO 260903Z 2609/2706 05005KT P6SM FEW040 SCT250=



000
FTUS42 KRAH 260903 AAA
TAFGSO
TAF AMD
KGSO 260903Z 2609/2706 05005KT P6SM FEW040 SCT250=



000
FTUS42 KRAH 260525
TAFGSO
TAF
KGSO 260525Z 2606/2706 05005KT P6SM SCT040 SCT250=



000
FTUS42 KRAH 260525
TAFGSO
TAF
KGSO 260525Z 2606/2706 05005KT P6SM SCT040 SCT250=



000
FTUS42 KRAH 260525
TAFRDU
TAF
KRDU 260525Z 2606/2706 05003KT P6SM FEW045 SCT250
     FM261400 04009KT P6SM FEW040 SCT250
     FM270000 06003KT P6SM FEW250=



000
FTUS42 KRAH 260525
TAFINT
TAF
KINT 260525Z 2606/2706 05005KT P6SM SCT040 SCT250=



000
FTUS42 KRAH 260525
TAFRWI
TAF
KRWI 260525Z 2606/2706 02004KT P6SM FEW250
      TEMPO 2607/2611 3SM BR
     FM261400 02011KT P6SM SCT040 SCT250
     FM262300 02003KT P6SM FEW250=



000
FTUS42 KRAH 260525
TAFFAY
TAF
KFAY 260525Z 2606/2706 04007KT P6SM SCT050
     FM261400 03011KT P6SM SCT040
     FM270000 02006KT P6SM FEW250=



000
FTUS42 KRAH 260525
TAFRWI
TAF
KRWI 260525Z 2606/2706 02004KT P6SM FEW250
      TEMPO 2607/2611 3SM BR
     FM261400 02011KT P6SM SCT040 SCT250
     FM262300 02003KT P6SM FEW250=



000
FTUS42 KRAH 260525
TAFRDU
TAF
KRDU 260525Z 2606/2706 05003KT P6SM FEW045 SCT250
     FM261400 04009KT P6SM FEW040 SCT250
     FM270000 06003KT P6SM FEW250=



000
FTUS42 KRAH 260525
TAFFAY
TAF
KFAY 260525Z 2606/2706 04007KT P6SM SCT050
     FM261400 03011KT P6SM SCT040
     FM270000 02006KT P6SM FEW250=



000
FTUS42 KRAH 260525
TAFINT
TAF
KINT 260525Z 2606/2706 05005KT P6SM SCT040 SCT250=



    US Dept of Commerce
    National Oceanic and Atmospheric Administration
    National Weather Service
    1325 East West Highway
    Silver Spring, MD 20910
    Page Author: NWS Internet Services Team
Disclaimer
Information Quality
Credits
Glossary
Privacy Policy
Freedom of Information Act (FOIA)
About Us
Career Opportunities